Time;durP1;ratioP1;P1;durP2;ratioP2;P2;SDS_P1;SDS_P2;PMS_P1;PMS_P2;Temp;Humidity;BMP_temperature;BMP_pressure;BME280_temperature;BME280_humidity;BME280_pressure;Samples;Min_cycle;Max_cycle;Signal;HPM_P1;HPM_P2
2022/05/11 00:00:06;;;;;;;6.70;6.10;;;;;;;17.74;57.53;94854.03;4787255;29;20268;-76
2022/05/11 00:02:32;;;;;;;7.73;6.93;;;;;;;17.72;57.22;94861.41;4781837;30;20202;-76
2022/05/11 00:04:57;;;;;;;6.67;6.07;;;;;;;17.14;59.14;94856.97;4782874;29;20470;-76
2022/05/11 00:07:23;;;;;;;7.50;6.90;;;;;;;17.32;59.57;94864.78;4783341;30;20607;-76
2022/05/11 00:09:48;;;;;;;7.00;6.40;;;;;;;17.24;59.17;94867.75;4786754;29;20226;-75
2022/05/11 00:12:14;;;;;;;11.63;7.33;;;;;;;16.74;60.42;94868.16;4783455;30;20205;-76
2022/05/11 00:14:40;;;;;;;7.87;6.57;;;;;;;16.97;59.87;94868.19;4794237;29;20275;-76
2022/05/11 00:17:06;;;;;;;7.77;6.97;;;;;;;16.97;59.12;94868.19;4800907;30;20473;-77
2022/05/11 00:19:31;;;;;;;8.30;6.30;;;;;;;17.11;59.16;94860.88;4787454;29;20444;-76
2022/05/11 00:21:57;;;;;;;7.87;5.77;;;;;;;16.66;59.52;94857.91;4785585;29;20221;-75
2022/05/11 00:24:22;;;;;;;7.50;6.90;;;;;;;16.91;58.82;94855.91;4800586;29;20212;-76
2022/05/11 00:26:47;;;;;;;6.60;6.13;;;;;;;17.06;58.78;94852.03;4800365;29;20548;-77
2022/05/11 00:29:13;;;;;;;7.57;6.90;;;;;;;16.94;59.28;94842.25;4769954;30;20213;-76
2022/05/11 00:31:38;;;;;;;6.17;5.70;;;;;;;16.97;59.54;94843.63;4784523;29;20252;-76
2022/05/11 00:34:04;;;;;;;6.87;6.27;;;;;;;17.01;59.22;94838.69;4782801;30;20224;-77
2022/05/11 00:36:29;;;;;;;7.73;6.60;;;;;;;17.09;58.93;94836.50;4794783;29;20222;-76
2022/05/11 00:38:54;;;;;;;6.90;6.30;;;;;;;17.08;58.73;94834.09;4797133;29;20210;-76
2022/05/11 00:41:20;;;;;;;6.00;5.50;;;;;;;17.16;58.81;94828.44;4792891;29;20233;-76
2022/05/11 00:44:01;;;;;;;6.80;6.30;;;;;;;17.26;58.08;94827.84;4792245;29;20203;-76
2022/05/11 00:46:35;;;;;;;7.93;6.40;;;;;;;17.25;58.30;94828.91;4782443;30;20440;-76
2022/05/11 00:51:56;;;;;;;6.67;6.17;;;;;;;17.07;58.64;94832.47;4782187;29;20478;-76
2022/05/11 00:54:23;;;;;;;6.70;6.20;;;;;;;17.19;58.74;94830.63;4782629;30;20416;-76
2022/05/11 00:56:51;;;;;;;6.40;5.90;;;;;;;16.86;59.33;94837.28;4781944;29;20479;-76
2022/05/11 00:59:22;;;;;;;6.60;5.93;;;;;;;16.85;58.59;94840.97;4773676;30;20448;-77
2022/05/11 01:01:48;;;;;;;7.37;6.67;;;;;;;16.90;58.62;94837.63;4774254;30;20444;-76
2022/05/11 01:04:18;;;;;;;6.93;6.43;;;;;;;17.24;57.42;94841.31;4782378;30;20428;-76
2022/05/11 01:06:43;;;;;;;6.50;5.80;;;;;;;17.32;56.77;94846.28;4783329;30;20463;-76
2022/05/11 01:09:10;;;;;;;6.60;5.73;;;;;;;17.15;57.76;94845.34;4798244;29;21007;-76
2022/05/11 01:11:49;;;;;;;6.70;6.20;;;;;;;17.08;57.77;94855.25;4799663;29;20874;-77
2022/05/11 01:14:20;;;;;;;7.03;6.30;;;;;;;17.04;58.17;94856.75;4777940;30;20552;-76
2022/05/11 01:16:46;;;;;;;7.40;6.70;;;;;;;17.07;58.72;94861.53;4771699;30;20495;-77
2022/05/11 01:19:21;;;;;;;7.73;6.80;;;;;;;17.08;59.06;94857.88;4795422;29;20455;-76
2022/05/11 01:21:53;;;;;;;6.70;6.20;;;;;;;16.97;59.15;94855.00;4799790;30;20185;-75
2022/05/11 01:24:30;;;;;;;7.00;6.40;;;;;;;17.07;58.57;94866.84;4780289;30;20498;-75
2022/05/11 01:26:56;;;;;;;6.63;5.97;;;;;;;17.30;57.46;94847.50;4789677;29;21098;-76
2022/05/11 01:29:22;;;;;;;7.30;6.60;;;;;;;17.10;57.76;94842.59;4800305;30;20521;-76
2022/05/11 01:31:48;;;;;;;6.43;5.80;;;;;;;16.66;58.98;94848.16;4793439;29;20197;-75
2022/05/11 01:34:20;;;;;;;6.63;5.73;;;;;;;16.59;59.32;94848.22;4793495;29;20454;-76
2022/05/11 01:36:48;;;;;;;6.40;5.80;;;;;;;16.46;59.52;94837.88;4789413;29;20454;-77
2022/05/11 01:39:14;;;;;;;6.77;6.10;;;;;;;16.32;60.33;94839.09;4796206;29;20444;-76
2022/05/11 01:41:49;;;;;;;7.07;5.73;;;;;;;16.38;60.25;94846.13;4790145;30;20475;-76
2022/05/11 01:44:17;;;;;;;6.57;5.60;;;;;;;16.43;59.89;94843.63;4799466;30;20234;-77
2022/05/11 01:46:48;;;;;;;6.80;6.20;;;;;;;16.48;59.73;94840.28;4784287;29;20452;-76
2022/05/11 01:49:15;;;;;;;6.30;5.80;;;;;;;16.50;59.80;94839.03;4781824;29;20429;-76
2022/05/11 01:51:40;;;;;;;6.80;6.30;;;;;;;16.51;59.13;94840.66;4781475;29;20440;-75
2022/05/11 01:54:06;;;;;;;7.40;6.70;;;;;;;16.54;58.95;94837.56;4787356;29;20536;-76
2022/05/11 01:56:32;;;;;;;7.30;6.10;;;;;;;16.29;58.93;94840.34;4781430;30;20191;-77
2022/05/11 01:58:58;;;;;;;7.10;6.50;;;;;;;16.24;58.85;94847.31;4788861;30;20816;-77
2022/05/11 02:01:27;;;;;;;9.50;5.97;;;;;;;15.96;59.75;94841.59;4799099;29;20193;-75
2022/05/11 02:03:53;;;;;;;6.83;6.13;;;;;;;15.93;59.88;94838.59;4781979;29;20450;-77
2022/05/11 02:09:05;;;;;;;6.27;5.67;;;;;;;16.06;59.57;94838.44;4796960;30;20196;-76
2022/05/11 02:11:31;;;;;;;6.67;5.97;;;;;;;15.94;59.81;94841.03;4793047;29;20519;-76
2022/05/11 02:13:58;;;;;;;6.83;6.17;;;;;;;15.91;59.72;94840.66;4781392;30;20455;-76
2022/05/11 02:16:24;;;;;;;10.10;6.37;;;;;;;15.99;59.74;94848.25;4781013;29;20472;-76
2022/05/11 02:18:50;;;;;;;7.00;6.33;;;;;;;16.10;59.10;94836.94;4779842;30;20436;-76
2022/05/11 02:21:15;;;;;;;6.50;5.90;;;;;;;16.10;59.54;94839.59;4789147;29;20205;-76
2022/05/11 02:23:41;;;;;;;6.80;6.20;;;;;;;16.12;59.87;94844.66;4799269;29;20481;-76
2022/05/11 02:26:10;;;;;;;8.07;6.20;;;;;;;16.25;59.06;94846.31;4783476;29;20267;-76
2022/05/11 02:28:36;;;;;;;6.83;5.80;;;;;;;16.33;58.96;94838.88;4783484;29;20217;-76
2022/05/11 02:31:01;;;;;;;7.40;6.73;;;;;;;16.32;58.71;94836.47;4797120;30;20447;-76
2022/05/11 02:33:27;;;;;;;8.30;6.63;;;;;;;16.68;57.37;94847.94;4791452;29;20186;-75
2022/05/11 02:35:53;;;;;;;6.70;6.20;;;;;;;16.48;58.62;94838.44;4788661;29;20286;-76
2022/05/11 02:38:26;;;;;;;8.77;6.23;;;;;;;16.49;58.41;94832.13;4794289;29;20202;-76
2022/05/11 02:40:52;;;;;;;10.23;6.60;;;;;;;16.69;57.61;94836.31;4780908;30;20472;-77
2022/05/11 02:43:18;;;;;;;6.27;5.70;;;;;;;16.57;57.93;94834.44;4781146;29;20461;-77
2022/05/11 02:45:45;;;;;;;7.17;6.50;;;;;;;16.29;58.81;94832.41;4784601;29;20428;-76
2022/05/11 02:48:14;;;;;;;7.43;6.90;;;;;;;16.09;59.67;94843.28;4790751;30;20471;-76
2022/05/11 02:50:48;;;;;;;8.03;6.17;;;;;;;16.13;59.71;94844.44;4793086;29;20419;-76
2022/05/11 02:53:15;;;;;;;7.00;6.17;;;;;;;16.17;59.53;94844.78;4802714;30;20513;-76
2022/05/11 02:55:43;;;;;;;7.03;5.90;;;;;;;16.31;59.16;94845.41;4787620;29;20501;-77
2022/05/11 02:58:10;;;;;;;8.87;6.57;;;;;;;16.16;59.25;94846.63;4800364;30;20431;-76
2022/05/11 03:00:37;;;;;;;6.40;5.70;;;;;;;16.19;59.19;94848.00;4801601;29;20427;-77
2022/05/11 03:03:04;;;;;;;7.60;6.83;;;;;;;16.39;58.25;94847.75;4801686;29;20483;-76
2022/05/11 03:05:30;;;;;;;10.17;6.87;;;;;;;16.56;57.34;94847.88;4799139;30;20435;-77
2022/05/11 03:07:55;;;;;;;8.40;7.10;;;;;;;16.31;58.18;94856.75;4800410;29;21021;-76
2022/05/11 03:10:21;;;;;;;8.13;7.43;;;;;;;16.10;59.09;94850.16;4801931;29;20742;-76
2022/05/11 03:12:47;;;;;;;7.07;6.50;;;;;;;16.11;59.11;94857.06;4790735;29;20192;-76
2022/05/11 03:15:12;;;;;;;6.60;6.00;;;;;;;16.31;58.93;94855.97;4792096;30;20273;-76
2022/05/11 03:17:38;;;;;;;8.07;5.83;;;;;;;16.47;58.25;94863.25;4786081;29;20206;-77
2022/05/11 03:20:05;;;;;;;7.30;5.60;;;;;;;16.37;58.57;94866.47;4790481;29;20194;-76
2022/05/11 03:22:30;;;;;;;7.10;6.50;;;;;;;16.36;58.82;94866.69;4801706;29;20181;-76
2022/05/11 03:24:56;;;;;;;7.50;6.70;;;;;;;16.51;58.52;94866.28;4789611;29;20660;-76
2022/05/11 03:27:21;;;;;;;6.97;6.37;;;;;;;16.47;58.35;94871.19;4798074;30;20278;-76
2022/05/11 03:29:47;;;;;;;7.10;6.37;;;;;;;16.63;57.65;94866.28;4793762;29;20194;-77
2022/05/11 03:34:57;;;;;;;7.13;6.43;;;;;;;16.52;58.00;94866.03;4798704;29;20200;-77
2022/05/11 03:37:23;;;;;;;7.73;7.13;;;;;;;16.68;57.66;94871.72;4800272;29;20439;-75
2022/05/11 03:39:49;;;;;;;6.43;5.83;;;;;;;16.66;57.63;94864.00;4800624;30;20197;-76
2022/05/11 03:42:17;;;;;;;9.20;7.97;;;;;;;16.84;56.37;94870.25;4781624;30;20208;-76
2022/05/11 03:44:42;;;;;;;7.70;7.00;;;;;;;16.82;56.56;94870.50;4796989;30;20206;-76
2022/05/11 03:47:08;;;;;;;6.80;6.20;;;;;;;16.78;56.91;94871.94;4791729;29;20500;-76
2022/05/11 03:49:34;;;;;;;6.77;6.00;;;;;;;16.81;56.99;94876.78;4785140;30;20189;-76
2022/05/11 03:52:01;;;;;;;8.70;6.70;;;;;;;16.80;57.43;94875.16;4781645;30;20202;-76
2022/05/11 03:54:27;;;;;;;9.10;7.10;;;;;;;16.75;57.63;94877.69;4784534;29;20195;-76
2022/05/11 03:56:52;;;;;;;7.87;6.27;;;;;;;16.86;57.20;94876.94;4800314;29;20438;-76
2022/05/11 03:59:18;;;;;;;7.37;6.10;;;;;;;16.93;57.43;94882.13;4781964;30;20437;-76
2022/05/11 04:01:44;;;;;;;7.30;6.60;;;;;;;17.01;57.26;94892.34;4795062;30;20447;-76
2022/05/11 04:04:09;;;;;;;9.63;7.60;;;;;;;17.18;56.73;94881.91;4796930;29;20209;-75
2022/05/11 04:06:35;;;;;;;8.90;7.80;;;;;;;17.28;56.83;94887.44;4798538;30;20218;-76
2022/05/11 04:09:01;;;;;;;9.30;7.80;;;;;;;17.53;56.37;94881.91;4795108;29;20213;-76
2022/05/11 04:11:28;;;;;;;7.90;7.30;;;;;;;16.96;57.72;94882.47;4800400;29;20201;-77
2022/05/11 04:13:55;;;;;;;8.83;6.33;;;;;;;17.24;56.34;94886.28;4798108;29;20450;-77
2022/05/11 04:16:20;;;;;;;14.93;7.60;;;;;;;17.34;55.70;94896.31;4794771;29;20450;-76
2022/05/11 04:18:46;;;;;;;8.47;7.67;;;;;;;17.43;56.03;94894.91;4783181;30;20468;-77
2022/05/11 04:21:12;;;;;;;11.57;7.70;;;;;;;17.60;55.38;94899.50;4782605;29;20209;-76
2022/05/11 04:23:41;;;;;;;8.73;7.67;;;;;;;17.84;54.59;94895.00;4783297;30;20201;-76
2022/05/11 04:26:12;;;;;;;8.17;7.37;;;;;;;18.01;53.57;94905.69;4782109;29;20198;-76
2022/05/11 04:28:39;;;;;;;13.03;7.60;;;;;;;17.24;55.69;94917.22;4796652;29;20550;-77
2022/05/11 04:31:09;;;;;;;9.70;8.43;;;;;;;17.29;56.03;94910.22;4783161;29;20523;-76
2022/05/11 04:33:35;;;;;;;9.07;8.17;;;;;;;16.97;56.16;94923.72;4782472;29;20487;-76
2022/05/11 04:36:03;;;;;;;11.43;8.23;;;;;;;17.44;54.30;94911.59;4768983;30;20515;-77
2022/05/11 04:38:29;;;;;;;6.80;6.20;;;;;;;16.77;55.70;94925.84;4795891;29;20431;-76
2022/05/11 04:40:55;;;;;;;9.43;6.80;;;;;;;17.18;54.16;94921.56;4794461;30;20494;-77
2022/05/11 04:43:21;;;;;;;7.83;7.03;;;;;;;17.58;52.86;94917.44;4782265;30;20250;-76
2022/05/11 04:45:47;;;;;;;7.13;6.53;;;;;;;17.77;52.48;94921.56;4791304;29;20457;-76
2022/05/11 04:48:15;;;;;;;9.00;8.10;;;;;;;17.83;52.90;94928.59;4783482;30;20253;-77
2022/05/11 04:50:42;;;;;;;11.23;7.47;;;;;;;18.06;51.91;94932.25;4799621;29;20431;-76
2022/05/11 04:53:09;;;;;;;8.13;7.37;;;;;;;18.33;51.41;94924.59;4799911;29;20443;-77
2022/05/11 04:55:35;;;;;;;11.83;6.80;;;;;;;18.38;51.56;94924.69;4797060;30;20916;-76
2022/05/11 04:58:01;;;;;;;7.20;6.57;;;;;;;18.19;51.29;94917.94;4793433;29;20511;-77
2022/05/11 05:00:26;;;;;;;7.50;6.77;;;;;;;18.05;51.67;94915.56;4768022;30;20534;-76
2022/05/11 05:02:52;;;;;;;7.43;6.83;;;;;;;17.81;52.44;94921.91;4795814;29;20204;-77
2022/05/11 05:05:19;;;;;;;7.67;6.90;;;;;;;17.89;52.31;94925.06;4799364;30;20206;-76
2022/05/11 05:07:45;;;;;;;8.40;7.47;;;;;;;17.98;52.86;94924.69;4781306;29;20471;-77
2022/05/11 05:10:13;;;;;;;8.90;7.33;;;;;;;18.26;51.69;94929.22;4798746;30;20477;-77
2022/05/11 05:12:43;;;;;;;8.10;7.30;;;;;;;18.60;50.94;94934.63;4782703;29;20205;-77
2022/05/11 05:15:13;;;;;;;8.20;7.40;;;;;;;18.80;50.44;94927.09;4799427;30;20469;-78
2022/05/11 05:17:38;;;;;;;7.60;6.90;;;;;;;19.22;48.92;94926.72;4795680;29;20514;-77
2022/05/11 05:20:07;;;;;;;7.40;6.83;;;;;;;18.75;50.70;94926.16;4782046;29;20455;-76
2022/05/11 05:22:33;;;;;;;8.17;7.30;;;;;;;19.04;49.88;94925.09;4791388;30;20201;-77
2022/05/11 05:24:58;;;;;;;8.83;7.93;;;;;;;19.28;49.10;94928.41;4793414;29;20479;-77
2022/05/11 05:27:24;;;;;;;9.97;7.10;;;;;;;18.96;49.69;94936.09;4781439;30;20467;-77
2022/05/11 05:32:40;;;;;;;7.67;6.97;;;;;;;19.24;49.25;94935.25;4782854;30;20202;-77
2022/05/11 05:35:08;;;;;;;10.50;9.50;;;;;;;19.55;48.77;94938.34;4798141;29;20439;-78
2022/05/11 05:37:33;;;;;;;13.17;7.77;;;;;;;19.72;48.43;94941.00;4799907;29;20485;-77
2022/05/11 05:39:59;;;;;;;12.00;8.00;;;;;;;19.17;49.45;94939.09;4798146;30;20494;-78
2022/05/11 05:42:26;;;;;;;10.57;8.70;;;;;;;19.16;49.60;94948.09;4789267;29;20289;-78
2022/05/11 05:44:52;;;;;;;9.70;8.80;;;;;;;18.57;51.19;94951.00;4765774;30;20198;-77
2022/05/11 05:47:18;;;;;;;8.77;7.80;;;;;;;19.24;49.04;94951.16;4790898;29;20489;-76
2022/05/11 05:49:44;;;;;;;10.00;7.97;;;;;;;19.17;49.47;94952.34;4807126;29;20635;-76
2022/05/11 05:52:16;;;;;;;10.03;8.50;;;;;;;19.32;48.98;94952.59;4796034;29;20439;-76
2022/05/11 05:54:42;;;;;;;10.00;9.10;;;;;;;20.01;47.47;94964.78;4779580;29;20448;-77
2022/05/11 05:57:07;;;;;;;9.87;8.87;;;;;;;19.25;49.38;94970.53;4781969;30;20439;-77
2022/05/11 05:59:32;;;;;;;9.97;8.43;;;;;;;19.77;47.85;94974.78;4781865;29;20472;-77
2022/05/11 06:01:58;;;;;;;13.60;9.87;;;;;;;19.77;47.96;94966.84;4796057;30;20645;-77
2022/05/11 06:04:24;;;;;;;9.70;8.80;;;;;;;19.54;48.70;94973.94;4800005;29;20197;-77
2022/05/11 06:06:49;;;;;;;12.50;10.10;;;;;;;20.02;48.11;94967.19;4795559;29;20225;-78
2022/05/11 06:09:15;;;;;;;13.33;9.50;;;;;;;20.40;47.38;94972.72;4797837;29;20228;-77
2022/05/11 06:11:40;;;;;;;13.60;9.53;;;;;;;20.35;47.08;94970.78;4793912;30;20206;-77
2022/05/11 06:14:06;;;;;;;15.63;8.73;;;;;;;21.15;46.04;94973.00;4796045;29;20201;-77
2022/05/11 06:16:31;;;;;;;11.90;9.43;;;;;;;20.60;46.72;94966.84;4779453;30;20253;-78
2022/05/11 06:18:58;;;;;;;12.40;8.73;;;;;;;20.69;46.76;94970.69;4799068;29;20606;-77
2022/05/11 06:21:24;;;;;;;15.60;8.80;;;;;;;21.08;46.04;94975.88;4784692;29;20439;-78
2022/05/11 06:23:50;;;;;;;8.73;7.67;;;;;;;20.06;47.79;94978.94;4802480;29;20447;-77
2022/05/11 06:26:16;;;;;;;8.63;7.70;;;;;;;20.55;45.81;94978.22;4796788;29;20229;-77
2022/05/11 06:28:43;;;;;;;6.10;5.60;;;;;;;21.25;44.31;94979.22;4794583;29;20511;-78
2022/05/11 06:31:10;;;;;;;12.00;6.90;;;;;;;21.05;44.25;94979.81;4798626;29;20438;-77
2022/05/11 06:33:36;;;;;;;6.47;5.93;;;;;;;20.58;44.19;94982.22;4800265;29;20454;-77
2022/05/11 06:36:03;;;;;;;6.27;5.87;;;;;;;20.43;44.83;94977.53;4802145;29;20446;-77
2022/05/11 06:38:28;;;;;;;6.40;5.43;;;;;;;20.22;44.45;94976.47;4802752;29;20496;-77
2022/05/11 06:40:54;;;;;;;6.10;4.80;;;;;;;19.46;44.89;94979.63;4765678;30;20571;-77
2022/05/11 06:43:19;;;;;;;7.57;4.83;;;;;;;19.64;45.63;94981.25;4778300;30;20276;-77
2022/05/11 06:45:45;;;;;;;5.57;5.07;;;;;;;19.89;45.12;94978.97;4775141;30;20532;-77
2022/05/11 06:48:10;;;;;;;8.80;6.10;;;;;;;20.45;44.04;94975.44;4774898;30;20239;-77
2022/05/11 06:50:36;;;;;;;5.43;4.90;;;;;;;20.63;43.82;94972.47;4771950;30;20220;-77
2022/05/11 06:53:12;;;;;;;7.30;5.47;;;;;;;21.16;42.89;94978.06;4772213;30;20214;-77
2022/05/11 07:01:07;;;;;;;5.10;4.17;;;;;;;20.63;44.01;94966.38;4777541;30;20552;-77
2022/05/11 07:03:33;;;;;;;14.03;5.03;;;;;;;21.20;43.09;94978.38;4768108;30;20528;-78
2022/05/11 07:05:58;;;;;;;4.73;4.33;;;;;;;21.31;41.72;94972.09;4767553;30;20202;-78
2022/05/11 07:08:24;;;;;;;5.57;3.53;;;;;;;21.41;40.31;94974.03;4769658;30;20226;-78
2022/05/11 07:13:33;;;;;;;4.13;3.83;;;;;;;21.21;40.42;94969.34;4779477;30;20241;-77
2022/05/11 07:15:59;;;;;;;4.87;4.57;;;;;;;21.23;40.97;94964.56;4778104;30;20437;-78
2022/05/11 07:18:26;;;;;;;4.67;3.70;;;;;;;21.14;38.92;94953.56;4766479;30;20243;-78
2022/05/11 07:20:51;;;;;;;5.50;3.47;;;;;;;21.92;38.35;94970.94;4770305;30;20194;-79
2022/05/11 07:23:19;;;;;;;3.67;3.37;;;;;;;21.71;38.70;94957.50;4773934;30;20456;-77
2022/05/11 07:25:45;;;;;;;4.40;4.00;;;;;;;21.44;39.19;94949.59;4775472;30;20383;-77
2022/05/11 07:28:10;;;;;;;4.40;3.50;;;;;;;20.89;39.83;94956.81;4763253;30;20491;-78
2022/05/11 07:30:38;;;;;;;4.33;4.03;;;;;;;21.80;38.14;94960.50;4777464;30;20273;-78
2022/05/11 07:33:04;;;;;;;4.87;3.70;;;;;;;22.06;37.63;94957.97;4762888;30;20227;-78
2022/05/11 07:35:30;;;;;;;3.40;3.10;;;;;;;21.94;37.80;94948.31;4773774;30;20552;-78
2022/05/11 07:37:58;;;;;;;4.43;3.93;;;;;;;21.97;38.38;94957.66;4768032;30;20436;-78
2022/05/11 07:40:27;;;;;;;3.90;3.27;;;;;;;22.74;37.36;94952.66;4754179;30;20489;-78
2022/05/11 07:42:55;;;;;;;4.53;4.13;;;;;;;22.44;37.78;94961.38;4767183;30;20435;-78
2022/05/11 07:45:23;;;;;;;4.47;3.70;;;;;;;21.61;39.03;94950.25;4764531;30;20449;-78
2022/05/11 07:47:48;;;;;;;4.03;3.27;;;;;;;21.75;39.50;94947.13;4758605;30;20520;-78
2022/05/11 07:50:14;;;;;;;8.63;4.07;;;;;;;22.19;38.80;94944.97;4755908;30;20511;-78
2022/05/11 07:52:46;;;;;;;5.90;4.17;;;;;;;21.95;39.63;94941.94;4749906;30;20207;-78
2022/05/11 07:55:12;;;;;;;6.70;4.00;;;;;;;22.72;38.75;94938.78;4772658;30;20453;-79
2022/05/11 08:00:22;;;;;;;8.60;5.63;;;;;;;23.32;37.80;94933.81;4775769;30;20477;-78
2022/05/11 08:02:48;;;;;;;12.07;4.50;;;;;;;21.97;39.77;94945.13;4780488;30;20443;-78
2022/05/11 08:05:16;;;;;;;7.43;5.63;;;;;;;22.99;38.02;94939.38;4761407;30;20657;-78
2022/05/11 08:07:50;;;;;;;4.70;4.20;;;;;;;22.74;38.16;94937.44;4761584;30;20235;-78
2022/05/11 08:10:19;;;;;;;6.00;4.50;;;;;;;23.28;37.11;94940.75;4763566;30;20492;-78
2022/05/11 08:12:44;;;;;;;5.37;4.87;;;;;;;23.11;37.79;94943.69;4764650;30;20456;-78
2022/05/11 08:15:12;;;;;;;4.10;3.70;;;;;;;22.53;38.42;94933.13;4765628;30;20961;-78
2022/05/11 08:17:41;;;;;;;3.90;3.50;;;;;;;22.65;36.83;94932.88;4783469;30;20203;-79
2022/05/11 08:20:14;;;;;;;4.20;3.90;;;;;;;22.48;37.80;94930.44;4769246;30;20441;-77
2022/05/11 08:22:41;;;;;;;5.17;4.47;;;;;;;23.43;35.95;94926.59;4776267;30;20453;-79
2022/05/11 08:25:07;;;;;;;8.40;4.70;;;;;;;23.95;35.29;94922.78;4780552;30;20432;-78
2022/05/11 08:27:33;;;;;;;5.37;4.13;;;;;;;23.91;34.44;94916.41;4765229;30;20475;-79
2022/05/11 08:35:28;;;;;;;3.87;3.37;;;;;;;23.40;35.17;94922.59;4778607;30;20452;-79
2022/05/11 08:37:57;;;;;;;2.70;2.53;;;;;;;24.54;31.99;94918.59;4782877;30;20469;-79
2022/05/11 08:40:39;;;;;;;4.03;3.50;;;;;;;24.30;33.81;94911.19;4787802;29;20476;-79
2022/05/11 08:43:10;;;;;;;4.37;3.20;;;;;;;24.56;33.67;94921.78;4772623;29;20562;-79
2022/05/11 08:45:42;;;;;;;5.67;3.73;;;;;;;24.31;34.05;94920.00;4772486;30;20489;-79
2022/05/11 08:48:22;;;;;;;3.37;3.17;;;;;;;25.07;31.91;94923.34;4789488;29;20517;-79
2022/05/11 08:50:48;;;;;;;2.90;2.70;;;;;;;24.86;31.48;94911.97;4784089;30;20428;-78
2022/05/11 08:53:38;;;;;;;3.37;3.10;;;;;;;25.42;31.37;94914.28;4798499;29;20570;-78
2022/05/11 08:56:12;;;;;;;5.50;3.13;;;;;;;25.08;31.74;94925.75;4798948;29;20253;-78
2022/05/11 08:58:57;;;;;;;8.93;4.07;;;;;;;25.46;30.69;94923.34;4799619;29;20456;-78
2022/05/11 09:01:34;;;;;;;4.33;2.97;;;;;;;26.18;29.30;94924.53;4782469;29;20445;-78
2022/05/11 09:04:04;;;;;;;3.00;2.70;;;;;;;25.01;30.48;94914.56;4786239;30;20443;-77
2022/05/11 09:06:30;;;;;;;6.50;2.87;;;;;;;25.74;30.40;94910.19;4775121;30;20436;-77
2022/05/11 09:09:01;;;;;;;3.13;2.83;;;;;;;25.00;31.39;94912.94;4786742;30;20566;-77
2022/05/11 09:11:33;;;;;;;3.03;2.70;;;;;;;25.82;30.12;94911.47;4772280;30;20229;-77
2022/05/11 09:14:00;;;;;;;3.23;2.93;;;;;;;25.63;30.57;94919.44;4781657;30;20448;-77
2022/05/11 09:16:52;;;;;;;3.00;2.80;;;;;;;26.18;29.38;94925.34;4786200;29;20796;-77
2022/05/11 09:19:25;;;;;;;2.43;2.33;;;;;;;27.40;27.70;94911.34;4780615;30;20452;-78
2022/05/11 09:22:17;;;;;;;3.63;3.20;;;;;;;26.11;29.12;94914.16;4783321;29;20463;-77
2022/05/11 09:24:50;;;;;;;3.43;2.33;;;;;;;25.56;30.34;94919.78;4786427;29;20443;-77
2022/05/11 09:27:27;;;;;;;5.00;2.83;;;;;;;26.20;28.94;94914.28;4798941;29;20487;-77
2022/05/11 09:29:55;;;;;;;2.40;2.20;;;;;;;26.80;28.39;94903.09;4799656;30;20442;-77
2022/05/11 09:32:37;;;;;;;3.07;2.50;;;;;;;26.20;29.53;94907.06;4774113;30;20523;-78
2022/05/11 09:35:18;;;;;;;3.03;2.80;;;;;;;26.14;30.08;94910.09;4783342;30;20439;-78
2022/05/11 09:37:45;;;;;;;4.47;3.17;;;;;;;27.06;28.91;94906.22;4793052;29;20451;-78
2022/05/11 09:40:22;;;;;;;3.00;2.80;;;;;;;27.20;29.20;94903.56;4799735;29;20478;-78
2022/05/11 09:42:52;;;;;;;5.10;2.90;;;;;;;26.89;29.24;94906.72;4765942;30;20542;-78
2022/05/11 09:45:36;;;;;;;3.63;2.87;;;;;;;26.44;30.03;94901.66;4782374;29;20767;-78
2022/05/11 09:48:08;;;;;;;3.07;2.80;;;;;;;26.82;29.27;94899.03;4781839;30;20476;-77
2022/05/11 09:50:34;;;;;;;3.03;2.93;;;;;;;27.38;28.69;94902.75;4781219;29;20428;-77
2022/05/11 09:53:22;;;;;;;3.30;3.10;;;;;;;27.98;27.46;94899.31;4782081;29;20436;-77
2022/05/11 09:55:48;;;;;;;2.80;2.60;;;;;;;27.48;27.69;94890.25;4782700;30;20543;-78
2022/05/11 09:58:32;;;;;;;11.80;3.47;;;;;;;28.12;26.31;94883.16;4798724;29;20825;-78
2022/05/11 10:01:28;;;;;;;2.80;2.60;;;;;;;28.97;25.16;94888.13;4799201;30;20415;-77
2022/05/11 10:04:02;;;;;;;11.17;3.73;;;;;;;28.07;26.85;94883.25;4784713;30;20470;-78
2022/05/11 10:06:34;;;;;;;2.70;2.50;;;;;;;28.56;25.60;94881.75;4798833;29;20430;-77
2022/05/11 10:09:00;;;;;;;2.90;2.60;;;;;;;27.96;26.40;94877.28;4799445;30;20471;-77
2022/05/11 10:11:37;;;;;;;2.43;2.23;;;;;;;27.48;27.36;94874.13;4782960;30;20495;-77
2022/05/11 10:22:51;;;;;;;3.17;2.70;;;;;;;27.80;26.42;94857.91;4792035;29;20470;-78
2022/05/11 10:25:24;;;;;;;4.20;3.07;;;;;;;28.47;25.24;94861.97;4788205;29;20878;-77
2022/05/11 10:28:10;;;;;;;5.77;2.93;;;;;;;27.83;26.32;94864.56;4795081;29;20490;-78
2022/05/11 10:30:56;;;;;;;5.90;2.60;;;;;;;28.81;25.91;94860.72;4779273;30;20557;-79
2022/05/11 10:33:21;;;;;;;2.90;2.70;;;;;;;27.63;27.31;94865.78;4781044;29;20444;-78
2022/05/11 10:36:14;;;;;;;6.83;3.83;;;;;;;28.22;26.29;94866.78;4788492;30;20465;-78
2022/05/11 10:39:01;;;;;;;4.43;2.73;;;;;;;28.05;26.34;94858.53;4765694;30;20209;-78
2022/05/11 10:41:43;;;;;;;6.83;3.23;;;;;;;28.68;25.58;94859.66;4772327;30;20830;-78
2022/05/11 10:44:38;;;;;;;3.13;2.30;;;;;;;27.62;27.20;94861.47;4781972;30;20488;-78
2022/05/11 10:47:20;;;;;;;4.30;3.10;;;;;;;27.36;26.96;94856.56;4741848;30;20462;-78
2022/05/11 10:50:11;;;;;;;5.43;3.13;;;;;;;28.31;26.53;94860.72;4784394;29;20440;-78
2022/05/11 10:52:42;;;;;;;6.63;3.33;;;;;;;28.50;25.71;94864.06;4764889;30;20460;-78
2022/05/11 10:55:25;;;;;;;6.53;3.63;;;;;;;29.07;25.06;94854.75;4796962;29;20440;-78
2022/05/11 10:57:56;;;;;;;3.00;2.80;;;;;;;28.26;26.00;94852.75;4794250;29;20938;-78
2022/05/11 11:00:23;;;;;;;3.57;2.90;;;;;;;29.29;25.08;94862.03;4781035;30;20449;-78
2022/05/11 11:03:22;;;;;;;4.20;2.50;;;;;;;28.72;25.43;94857.16;4771505;30;20840;-78
2022/05/11 11:08:50;;;;;;;3.40;3.10;;;;;;;28.74;25.05;94855.78;4764921;29;20496;-78
2022/05/11 11:11:33;;;;;;;4.30;2.80;;;;;;;27.77;26.38;94861.19;4791880;29;20466;-78
2022/05/11 11:14:02;;;;;;;10.60;2.93;;;;;;;25.11;32.06;94863.56;4783451;30;20444;-78
2022/05/11 11:16:32;;;;;;;3.27;2.97;;;;;;;25.73;31.77;94879.13;4782447;30;20459;-78
2022/05/11 11:18:58;;;;;;;2.73;2.50;;;;;;;25.42;33.05;94879.44;4783808;29;20501;-77
2022/05/11 11:21:24;;;;;;;2.80;2.27;;;;;;;25.08;32.11;94874.03;4784200;30;20439;-78
2022/05/11 11:24:23;;;;;;;4.93;2.40;;;;;;;25.54;31.88;94888.97;4784458;29;20448;-78
2022/05/11 11:26:57;;;;;;;2.77;2.57;;;;;;;24.16;33.88;94886.09;4797474;30;20818;-78
2022/05/11 11:29:27;;;;;;;2.80;2.60;;;;;;;24.24;34.08;94880.16;4783925;29;20439;-78
2022/05/11 11:31:59;;;;;;;2.53;2.23;;;;;;;25.09;33.07;94881.81;4783419;29;20436;-78
2022/05/11 11:34:32;;;;;;;3.53;2.40;;;;;;;25.24;33.11;94885.47;4773681;30;20453;-78
2022/05/11 11:37:00;;;;;;;3.60;3.03;;;;;;;24.97;33.57;94889.41;4790652;29;20448;-77
2022/05/11 11:39:49;;;;;;;3.40;2.37;;;;;;;25.67;31.69;94891.78;4784728;30;20447;-77
2022/05/11 11:42:34;;;;;;;2.50;2.40;;;;;;;27.32;29.74;94887.00;4785357;30;20455;-77
2022/05/11 11:45:00;;;;;;;2.10;2.00;;;;;;;27.50;28.90;94888.06;4784096;30;20443;-78
2022/05/11 11:47:26;;;;;;;2.90;2.70;;;;;;;27.57;28.58;94893.84;4785674;30;20518;-78
2022/05/11 11:49:54;;;;;;;2.93;2.63;;;;;;;27.54;28.72;94894.44;4801062;29;20435;-78
2022/05/11 11:52:41;;;;;;;2.27;2.07;;;;;;;26.47;29.80;94897.59;4801374;30;20274;-78
2022/05/11 11:55:30;;;;;;;2.80;2.60;;;;;;;27.80;27.48;94900.94;4785755;29;20432;-78
2022/05/11 11:58:10;;;;;;;2.33;2.13;;;;;;;27.72;27.65;94890.09;4783289;29;20681;-77
2022/05/11 12:00:48;;;;;;;6.80;3.00;;;;;;;27.57;27.79;94899.22;4783768;30;20525;-78
2022/05/11 12:03:19;;;;;;;2.73;2.30;;;;;;;27.66;28.20;94908.22;4787594;29;20548;-77
2022/05/11 12:05:52;;;;;;;2.23;1.90;;;;;;;26.58;29.43;94896.38;4782121;30;20487;-78
2022/05/11 12:17:05;;;;;;;3.53;2.87;;;;;;;25.57;31.24;94901.78;4800273;29;20454;-77
2022/05/11 12:19:38;;;;;;;4.90;2.70;;;;;;;25.94;30.43;94906.56;4797324;29;20435;-77
2022/05/11 12:22:15;;;;;;;3.63;3.10;;;;;;;25.97;31.27;94913.22;4782983;30;20441;-77
2022/05/11 12:25:03;;;;;;;4.83;2.40;;;;;;;24.85;33.74;94905.84;4789580;29;21023;-77
2022/05/11 12:27:36;;;;;;;2.77;2.57;;;;;;;24.57;35.07;94893.94;4799413;30;20489;-77
2022/05/11 12:30:18;;;;;;;3.33;2.97;;;;;;;23.86;36.78;94901.16;4786649;29;20436;-77